createdAt,value
2019-04-27T00:00:48.262Z,65.22
2019-04-27T00:03:23.343Z,65.73
2019-04-27T00:05:54.364Z,65.88
2019-04-27T00:08:28.502Z,66.07
2019-04-27T00:11:09.627Z,65.84
2019-04-27T00:13:40.591Z,65.56
2019-04-27T00:16:09.714Z,66.34
2019-04-27T00:18:37.680Z,65.71
2019-04-27T00:21:05.116Z,65.64
2019-04-27T00:23:34.007Z,66.34
2019-04-27T00:26:00.044Z,66.19
2019-04-27T00:28:27.449Z,66.21
2019-04-27T00:30:54.916Z,66.02
2019-04-27T00:33:23.753Z,65.93
2019-04-27T00:35:54.324Z,65.86
2019-04-27T00:38:24.687Z,65.93
2019-04-27T00:40:55.126Z,65.62
2019-04-27T00:43:22.948Z,65.91
2019-04-27T00:45:50.035Z,65.68
2019-04-27T00:48:17.485Z,65.74
2019-04-27T00:50:44.892Z,65.17
2019-04-27T00:53:13.368Z,66.00
2019-04-27T00:55:39.737Z,65.99
2019-04-27T00:58:10.094Z,65.86
2019-04-27T01:00:58.216Z,65.27
2019-04-27T01:03:42.969Z,65.21
2019-04-27T01:06:08.778Z,65.27
2019-04-27T01:08:36.241Z,66.73
2019-04-27T01:11:04.623Z,66.73
2019-04-27T01:13:34.759Z,67.77
2019-04-27T01:15:59.508Z,67.06
2019-04-27T01:18:28.445Z,66.88
2019-04-27T01:20:54.421Z,66.87
2019-04-27T01:23:21.855Z,66.86
2019-04-27T01:25:55.051Z,67.15
2019-04-27T01:28:23.002Z,66.95
2019-04-27T01:30:50.444Z,67.09
2019-04-27T01:33:19.687Z,66.71
2019-04-27T01:35:49.142Z,67.05
2019-04-27T01:38:15.097Z,66.50
2019-04-27T01:40:42.552Z,66.42
2019-04-27T01:43:10.005Z,66.64
2019-04-27T01:45:38.991Z,66.82
2019-04-27T01:48:05.443Z,67.13
2019-04-27T01:50:32.912Z,66.66
2019-04-27T01:53:00.333Z,67.08
2019-04-27T01:55:27.748Z,66.76
2019-04-27T01:57:55.174Z,68.11
2019-04-27T02:00:26.427Z,68.82
2019-04-27T02:02:53.838Z,68.39
2019-04-27T02:05:29.032Z,68.01
2019-04-27T02:07:55.322Z,68.29
2019-04-27T02:10:22.775Z,68.26
2019-04-27T02:12:50.202Z,67.83
2019-04-27T02:15:19.108Z,68.32
2019-04-27T02:17:45.054Z,68.30
2019-04-27T02:20:12.620Z,68.47
2019-04-27T02:22:40.075Z,68.41
2019-04-27T02:25:09.044Z,68.20
2019-04-27T02:27:35.046Z,67.45
2019-04-27T02:30:20.456Z,67.89
2019-04-27T02:33:05.490Z,67.82
2019-04-27T02:35:32.943Z,67.92
2019-04-27T02:38:00.580Z,68.22
2019-04-27T02:40:42.609Z,68.37
2019-04-27T02:43:07.242Z,67.98
2019-04-27T02:45:34.713Z,68.04
2019-04-27T02:48:02.221Z,67.90
2019-04-27T02:50:31.197Z,67.75
2019-04-27T02:53:00.287Z,68.34
2019-04-27T02:55:26.149Z,69.42
2019-04-27T02:57:53.627Z,68.75
2019-04-27T03:00:21.090Z,68.59
2019-04-27T03:02:50.872Z,67.84
2019-04-27T03:05:16.622Z,68.00
2019-04-27T03:07:44.029Z,67.79
2019-04-27T03:10:11.451Z,67.66
2019-04-27T03:12:42.002Z,67.96
2019-04-27T03:15:12.648Z,67.92
2019-04-27T03:17:45.665Z,68.44
2019-04-27T03:20:13.919Z,68.04
2019-04-27T03:22:43.787Z,68.44
2019-04-27T03:25:26.144Z,68.22
2019-04-27T03:27:53.594Z,67.57
2019-04-27T03:30:22.993Z,67.73
2019-04-27T03:32:54.858Z,67.86
2019-04-27T03:35:15.988Z,68.01
2019-04-27T03:37:43.419Z,67.54
2019-04-27T03:40:10.834Z,69.12
2019-04-27T03:42:40.264Z,68.57
2019-04-27T03:45:05.823Z,68.04
2019-04-27T03:47:33.284Z,67.85
2019-04-27T03:50:00.768Z,67.57
2019-04-27T03:52:31.078Z,68.28
2019-04-27T03:55:00.442Z,68.68
2019-04-27T03:57:35.552Z,68.54
2019-04-27T04:00:03.007Z,68.84
2019-04-27T04:02:30.597Z,68.44
2019-04-27T04:04:59.573Z,68.37
2019-04-27T04:07:25.394Z,68.29
2019-04-27T04:09:53.896Z,68.46
2019-04-27T04:12:22.132Z,68.57
2019-04-27T04:14:49.576Z,68.43
2019-04-27T04:17:17.044Z,68.04
2019-04-27T04:19:54.362Z,68.22
2019-04-27T04:22:11.972Z,68.17
2019-04-27T04:24:40.351Z,68.01
2019-04-27T04:27:09.942Z,67.73
2019-04-27T04:29:36.405Z,67.63
2019-04-27T04:32:03.903Z,67.90
2019-04-27T04:34:31.366Z,68.21
2019-04-27T04:37:00.448Z,68.03
2019-04-27T04:39:26.336Z,67.62
2019-04-27T04:41:59.773Z,68.08
2019-04-27T04:44:30.605Z,68.33
2019-04-27T04:47:01.532Z,68.61
2019-04-27T04:49:29.615Z,68.53
2019-04-27T04:51:56.373Z,68.54
2019-04-27T04:54:24.694Z,68.49
2019-04-27T04:56:51.266Z,68.34
2019-04-27T04:59:20.179Z,68.41
2019-04-27T05:01:46.272Z,68.79
2019-04-27T05:04:13.738Z,69.79
2019-04-27T05:06:41.176Z,69.57
2019-04-27T05:09:09.727Z,69.28
2019-04-27T05:11:37.242Z,71.42
2019-04-27T05:14:04.683Z,70.33
2019-04-27T05:16:32.937Z,70.57
2019-04-27T05:18:59.657Z,70.86
2019-04-27T05:21:27.128Z,71.28
2019-04-27T05:23:54.546Z,71.78
2019-04-27T05:26:21.981Z,71.51
2019-04-27T05:28:49.417Z,71.36
2019-04-27T05:31:19.489Z,71.41
2019-04-27T05:33:46.511Z,72.32
2019-04-27T05:36:13.942Z,71.09
2019-04-27T05:38:46.007Z,72.20
2019-04-27T05:41:08.840Z,71.56
2019-04-27T05:43:36.611Z,70.72
2019-04-27T05:46:12.901Z,71.58
2019-04-27T05:48:40.481Z,72.53
2019-04-27T05:51:09.220Z,71.87
2019-04-27T05:53:35.395Z,72.45
2019-04-27T05:56:02.845Z,71.36
2019-04-27T05:58:30.282Z,71.96
2019-04-27T06:00:59.469Z,72.75
2019-04-27T06:03:25.225Z,72.12
2019-04-27T06:05:52.716Z,73.26
2019-04-27T06:08:21.140Z,73.52
2019-04-27T06:10:48.906Z,73.58
2019-04-27T06:13:15.135Z,73.29
2019-04-27T06:15:42.610Z,72.74
2019-04-27T06:18:11.011Z,73.39
2019-04-27T06:20:50.475Z,73.05
2019-04-27T06:23:05.996Z,73.46
2019-04-27T06:25:33.467Z,73.28
2019-04-27T06:28:00.979Z,73.50
2019-04-27T06:30:29.226Z,73.94
2019-04-27T06:32:55.898Z,72.91
2019-04-27T06:35:23.342Z,72.41
2019-04-27T06:37:50.835Z,73.67
2019-04-27T06:40:18.720Z,72.78
2019-04-27T06:42:45.706Z,72.29
2019-04-27T06:45:13.127Z,72.28
2019-04-27T06:47:41.558Z,72.88
2019-04-27T06:50:08.965Z,74.68
2019-04-27T06:52:36.392Z,74.59
2019-04-27T06:55:06.223Z,75.49
2019-04-27T06:57:31.306Z,76.74
2019-04-27T06:59:59.143Z,76.96
2019-04-27T07:02:26.274Z,77.23
2019-04-27T07:04:53.738Z,77.19
2019-04-27T07:07:21.177Z,77.26
2019-04-27T07:09:49.345Z,77.96
2019-04-27T07:12:16.071Z,77.75
2019-04-27T07:14:52.210Z,77.12
2019-04-27T07:17:12.045Z,79.20
2019-04-27T07:19:39.770Z,79.97
2019-04-27T07:22:06.988Z,80.69
2019-04-27T07:24:34.517Z,81.73
2019-04-27T07:27:02.022Z,81.95
2019-04-27T07:29:29.472Z,80.43
2019-04-27T07:31:56.895Z,81.66
2019-04-27T07:34:24.428Z,81.37
2019-04-27T07:36:52.003Z,81.96
2019-04-27T07:39:19.534Z,83.00
2019-04-27T07:41:48.520Z,82.39
2019-04-27T07:44:16.339Z,82.03
2019-04-27T07:46:43.794Z,80.42
2019-04-27T07:49:11.243Z,81.49
2019-04-27T07:51:39.403Z,82.32
2019-04-27T07:54:06.846Z,80.82
2019-04-27T07:56:34.362Z,79.85
2019-04-27T07:59:01.817Z,79.62
2019-04-27T08:01:29.782Z,80.39
2019-04-27T08:03:58.902Z,81.79
2019-04-27T08:06:24.795Z,80.67
2019-04-27T08:11:29.258Z,81.99
2019-04-27T08:13:56.227Z,82.07
2019-04-27T08:16:24.886Z,81.59
2019-04-27T08:18:52.471Z,82.33
2019-04-27T08:21:20.103Z,83.51
2019-04-27T08:23:48.990Z,81.60
2019-04-27T08:26:15.046Z,81.99
2019-04-27T08:28:55.325Z,83.94
2019-04-27T08:31:25.742Z,83.26
2019-04-27T08:33:53.162Z,84.98
2019-04-27T08:36:20.798Z,84.54
2019-04-27T08:38:49.196Z,83.92
2019-04-27T08:41:16.912Z,83.00
2019-04-27T08:43:44.536Z,85.30
2019-04-27T08:46:12.028Z,84.09
2019-04-27T08:48:39.537Z,84.72
2019-04-27T08:51:07.012Z,86.81
2019-04-27T08:53:34.478Z,86.62
2019-04-27T08:56:02.064Z,87.07
2019-04-27T08:58:29.540Z,86.46
2019-04-27T09:00:58.897Z,87.23
2019-04-27T09:03:24.722Z,86.90
2019-04-27T09:05:52.207Z,87.23
2019-04-27T09:08:21.449Z,87.83
2019-04-27T09:10:49.648Z,87.36
2019-04-27T09:13:19.451Z,87.12
2019-04-27T09:16:00.796Z,88.52
2019-04-27T09:18:29.297Z,89.03
2019-04-27T09:20:55.918Z,88.77
2019-04-27T09:23:24.059Z,89.08
2019-04-27T09:25:53.581Z,90.43
2019-04-27T09:28:22.026Z,89.66
2019-04-27T09:30:49.868Z,89.28
2019-04-27T09:33:16.990Z,89.14
2019-04-27T09:35:46.614Z,90.22
2019-04-27T09:38:14.126Z,90.14
2019-04-27T09:40:42.502Z,90.79
2019-04-27T09:43:11.059Z,90.95
2019-04-27T09:45:39.206Z,90.28
2019-04-27T09:48:07.041Z,89.77
2019-04-27T09:50:36.126Z,89.00
2019-04-27T09:53:02.541Z,89.41
2019-04-27T09:55:32.122Z,90.16
2019-04-27T09:58:00.686Z,89.57
2019-04-27T10:00:29.485Z,90.11
2019-04-27T10:02:56.964Z,89.57
2019-04-27T10:05:26.315Z,89.68
2019-04-27T10:07:52.793Z,89.27
2019-04-27T10:10:20.782Z,89.70
2019-04-27T10:12:49.120Z,89.20
2019-04-27T10:15:17.150Z,89.04
2019-04-27T10:17:45.564Z,89.96
2019-04-27T10:20:16.804Z,90.40
2019-04-27T10:22:46.607Z,90.12
2019-04-27T10:25:25.099Z,90.42
2019-04-27T10:27:59.921Z,91.41
2019-04-27T10:30:33.401Z,87.17
2019-04-27T10:33:07.901Z,87.42
2019-04-27T10:35:36.911Z,87.57
2019-04-27T10:38:04.899Z,87.38
2019-04-27T10:40:34.287Z,88.82
2019-04-27T10:43:03.746Z,87.60
2019-04-27T10:45:33.604Z,87.28
2019-04-27T10:48:02.462Z,88.65
2019-04-27T10:50:33.319Z,88.22
2019-04-27T10:53:02.915Z,87.96
2019-04-27T10:55:36.180Z,88.38
2019-04-27T10:58:04.682Z,88.73
2019-04-27T11:00:37.064Z,89.75
2019-04-27T11:03:06.612Z,88.78
2019-04-27T11:05:37.229Z,90.04
2019-04-27T11:08:06.508Z,90.50
2019-04-27T11:10:32.622Z,91.33
2019-04-27T11:13:00.217Z,90.65
2019-04-27T11:15:30.189Z,90.09
2019-04-27T11:17:58.002Z,90.33
2019-04-27T11:20:29.915Z,89.92
2019-04-27T11:23:07.072Z,90.07
2019-04-27T11:25:29.800Z,88.57
2019-04-27T11:28:02.590Z,87.79
2019-04-27T11:30:34.227Z,88.72
2019-04-27T11:33:03.498Z,87.83
2019-04-27T11:35:41.790Z,87.48
2019-04-27T11:38:14.521Z,87.28
2019-04-27T11:40:42.267Z,87.47
2019-04-27T11:45:48.002Z,85.03
2019-04-27T11:48:18.419Z,84.24
2019-04-27T11:50:48.567Z,82.91
2019-04-27T11:53:22.614Z,84.16
2019-04-27T11:55:47.941Z,85.08
2019-04-27T11:58:17.919Z,84.29
2019-04-27T12:00:48.541Z,85.03
2019-04-27T12:03:18.923Z,84.81
2019-04-27T12:05:48.411Z,83.86
2019-04-27T12:08:21.807Z,83.75
2019-04-27T12:10:51.605Z,84.08
2019-04-27T12:13:20.115Z,83.96
2019-04-27T12:15:51.310Z,83.48
2019-04-27T12:18:19.353Z,83.92
2019-04-27T12:20:50.652Z,84.34
2019-04-27T12:23:19.311Z,83.87
2019-04-27T12:25:47.145Z,84.03
2019-04-27T12:28:22.533Z,84.14
2019-04-27T12:30:56.461Z,85.27
2019-04-27T12:33:32.717Z,85.26
2019-04-27T12:36:07.505Z,85.05
2019-04-27T12:38:36.695Z,84.82
2019-04-27T12:41:06.634Z,85.22
2019-04-27T12:43:33.150Z,83.16
2019-04-27T12:46:00.783Z,80.78
2019-04-27T12:48:28.701Z,79.88
2019-04-27T12:50:56.503Z,80.75
2019-04-27T12:53:49.873Z,80.92
2019-04-27T12:56:08.805Z,78.89
2019-04-27T12:58:39.276Z,77.24
2019-04-27T13:03:33.829Z,74.81
2019-04-27T13:06:01.907Z,73.79
2019-04-27T13:08:29.367Z,70.65
2019-04-27T13:10:57.375Z,74.07
2019-04-27T13:13:26.542Z,74.07
2019-04-27T13:15:52.203Z,73.97
2019-04-27T13:18:20.237Z,71.71
2019-04-27T13:20:49.793Z,73.11
2019-04-27T13:23:17.301Z,70.49
2019-04-27T13:25:47.682Z,70.89
2019-04-27T13:28:15.214Z,67.05
2019-04-27T13:30:43.257Z,68.47
2019-04-27T13:33:11.004Z,68.91
2019-04-27T13:35:38.711Z,66.83
2019-04-27T13:38:06.184Z,68.33
2019-04-27T13:40:36.747Z,68.67
2019-04-27T13:43:09.764Z,72.24
2019-04-27T13:45:53.021Z,66.71
2019-04-27T13:48:36.495Z,68.88
2019-04-27T13:51:06.633Z,66.80
2019-04-27T13:53:32.992Z,67.78
2019-04-27T13:56:00.694Z,65.11
2019-04-27T13:58:28.189Z,65.63
2019-04-27T14:00:55.689Z,66.91
2019-04-27T14:03:25.105Z,67.85
2019-04-27T14:05:52.493Z,67.53
2019-04-27T14:08:19.997Z,67.42
2019-04-27T14:10:47.644Z,66.82
2019-04-27T14:13:17.514Z,67.53
2019-04-27T14:15:42.548Z,67.75
2019-04-27T14:18:10.080Z,66.42
2019-04-27T14:20:38.936Z,67.09
2019-04-27T14:23:11.423Z,66.59
2019-04-27T14:25:39.160Z,67.71
2019-04-27T14:28:08.419Z,68.21
2019-04-27T14:30:34.084Z,67.53
2019-04-27T14:33:01.556Z,65.59
2019-04-27T14:35:29.028Z,66.91
2019-04-27T14:37:58.141Z,66.52
2019-04-27T14:40:24.057Z,66.89
2019-04-27T14:42:53.672Z,68.29
2019-04-27T14:45:19.135Z,70.62
2019-04-27T14:47:48.133Z,69.11
2019-04-27T14:50:14.083Z,68.00
2019-04-27T14:52:41.584Z,67.58
2019-04-27T14:55:08.991Z,66.35
2019-04-27T14:57:36.478Z,65.61
2019-04-27T15:00:03.943Z,65.45
2019-04-27T15:02:31.383Z,64.75
2019-04-27T15:04:58.818Z,65.58
2019-04-27T15:07:26.252Z,65.95
2019-04-27T15:09:57.321Z,66.19
2019-04-27T15:12:24.527Z,64.83
2019-04-27T15:14:49.402Z,62.86
2019-04-27T15:17:17.544Z,62.10
2019-04-27T15:19:52.656Z,61.05
2019-04-27T15:22:19.613Z,60.59
2019-04-27T15:24:48.976Z,60.89
2019-04-27T15:27:11.458Z,59.93
2019-04-27T15:29:38.931Z,59.05
2019-04-27T15:32:12.324Z,59.06
2019-04-27T15:34:44.123Z,57.89
2019-04-27T15:37:18.250Z,59.24
2019-04-27T15:39:50.380Z,59.84
2019-04-27T15:42:19.049Z,61.04
2019-04-27T15:44:47.664Z,61.79
2019-04-27T15:47:13.753Z,63.03
2019-04-27T15:49:49.816Z,71.26
2019-04-27T15:52:09.149Z,73.46
2019-04-27T15:54:37.860Z,74.41
2019-04-27T15:57:05.672Z,75.30
2019-04-27T15:59:37.726Z,75.14
2019-04-27T16:02:00.091Z,76.23
2019-04-27T16:04:27.807Z,75.55
2019-04-27T16:06:55.273Z,75.81
2019-04-27T16:09:25.575Z,76.07
2019-04-27T16:11:57.949Z,79.46
2019-04-27T16:14:18.889Z,77.18
2019-04-27T16:16:45.407Z,76.83
2019-04-27T16:19:12.879Z,77.03
2019-04-27T16:21:46.989Z,77.71
2019-04-27T16:24:12.569Z,78.63
2019-04-27T16:26:38.616Z,78.20
2019-04-27T16:29:04.212Z,77.07
2019-04-27T16:31:33.171Z,79.02
2019-04-27T16:34:02.730Z,77.72
2019-04-27T16:36:28.722Z,77.12
2019-04-27T16:38:59.115Z,77.33
2019-04-27T16:41:28.120Z,79.45
2019-04-27T16:43:54.162Z,78.16
2019-04-27T16:46:21.666Z,78.26
2019-04-27T16:48:51.425Z,76.85
2019-04-27T16:51:19.151Z,78.94
2019-04-27T16:53:46.815Z,77.00
2019-04-27T16:56:16.421Z,77.61
2019-04-27T16:58:42.257Z,76.58
2019-04-27T17:01:10.682Z,76.21
2019-04-27T17:03:38.927Z,76.16
2019-04-27T17:06:07.920Z,76.05
2019-04-27T17:08:32.782Z,77.91
2019-04-27T17:11:08.347Z,78.99
2019-04-27T17:13:38.951Z,78.05
2019-04-27T17:16:08.697Z,78.05
2019-04-27T17:18:52.910Z,77.13
2019-04-27T17:21:23.035Z,77.66
2019-04-27T17:23:48.102Z,77.30
2019-04-27T17:26:21.123Z,76.82
2019-04-27T17:28:50.597Z,76.33
2019-04-27T17:31:19.669Z,75.97
2019-04-27T17:33:48.419Z,77.00
2019-04-27T17:36:15.922Z,77.64
2019-04-27T17:38:42.649Z,76.63
2019-04-27T17:41:11.183Z,77.81
2019-04-27T17:43:37.428Z,76.42
2019-04-27T17:46:02.530Z,76.44
2019-04-27T17:48:29.966Z,75.78
2019-04-27T17:51:02.643Z,75.98
2019-04-27T17:53:25.153Z,76.88
2019-04-27T17:55:54.952Z,76.00
2019-04-27T17:58:21.065Z,75.49
2019-04-27T18:00:47.407Z,75.84
2019-04-27T18:03:17.554Z,74.96
2019-04-27T18:05:43.806Z,75.76
2019-04-27T18:08:13.602Z,76.16
2019-04-27T18:10:37.333Z,76.17
2019-04-27T18:13:04.810Z,76.04
2019-04-27T18:15:32.289Z,77.96
2019-04-27T18:18:09.679Z,77.45
2019-04-27T18:20:37.914Z,78.65
2019-04-27T18:23:15.162Z,80.65
2019-04-27T18:25:40.361Z,81.33
2019-04-27T18:28:15.110Z,82.16
2019-04-27T18:30:42.087Z,83.03
2019-04-27T18:33:07.963Z,82.06
2019-04-27T18:35:36.610Z,81.99
2019-04-27T18:38:04.088Z,81.89
2019-04-27T18:40:33.255Z,82.87
2019-04-27T18:43:02.008Z,84.52
2019-04-27T18:45:28.335Z,84.61
2019-04-27T18:47:56.012Z,84.07
2019-04-27T18:50:28.156Z,82.63
2019-04-27T18:52:53.953Z,83.53
2019-04-27T18:55:21.972Z,82.18
2019-04-27T18:57:50.959Z,81.00
2019-04-27T19:00:17.757Z,82.13
2019-04-27T19:02:45.199Z,82.01
2019-04-27T19:05:12.803Z,84.14
2019-04-27T19:07:40.299Z,85.80
2019-04-27T19:10:08.969Z,83.74
2019-04-27T19:12:35.392Z,82.88
2019-04-27T19:15:03.154Z,83.08
2019-04-27T19:17:30.663Z,82.05
2019-04-27T19:19:58.180Z,81.58
2019-04-27T19:22:27.944Z,82.12
2019-04-27T19:24:54.247Z,81.74
2019-04-27T19:27:22.450Z,82.29
2019-04-27T19:29:49.896Z,82.09
2019-04-27T19:32:17.957Z,81.88
2019-04-27T19:34:45.205Z,81.83
2019-04-27T19:37:13.469Z,81.71
2019-04-27T19:39:40.942Z,82.36
2019-04-27T19:42:08.397Z,83.39
2019-04-27T19:44:35.865Z,83.43
2019-04-27T19:47:05.685Z,83.10
2019-04-27T19:49:31.730Z,82.67
2019-04-27T19:51:58.814Z,83.78
2019-04-27T19:54:25.861Z,83.15
2019-04-27T19:56:53.368Z,83.69
2019-04-27T19:59:21.346Z,84.30
2019-04-27T20:01:48.846Z,84.41
2019-04-27T20:04:31.365Z,84.48
2019-04-27T20:06:59.853Z,84.82
2019-04-27T20:09:34.532Z,84.96
2019-04-27T20:12:05.079Z,84.50
2019-04-27T20:14:30.907Z,84.16
2019-04-27T20:16:58.269Z,83.32
2019-04-27T20:19:25.815Z,82.40
2019-04-27T20:21:53.318Z,82.01
2019-04-27T20:24:22.735Z,81.70
2019-04-27T20:26:48.336Z,81.93
2019-04-27T20:29:15.781Z,82.80
2019-04-27T20:31:43.226Z,82.31
2019-04-27T20:34:10.678Z,81.43
2019-04-27T20:36:38.802Z,81.80
2019-04-27T20:39:06.298Z,81.75
2019-04-27T20:41:33.927Z,81.04
2019-04-27T20:44:02.345Z,81.23
2019-04-27T20:46:28.983Z,81.20
2019-04-27T20:48:57.376Z,82.07
2019-04-27T20:51:31.049Z,82.83
2019-04-27T20:53:58.492Z,82.52
2019-04-27T20:56:25.976Z,82.78
2019-04-27T20:58:53.451Z,81.84
2019-04-27T21:01:20.976Z,81.63
2019-04-27T21:03:48.548Z,81.75
2019-04-27T21:06:16.041Z,81.55
2019-04-27T21:08:43.553Z,82.39
2019-04-27T21:11:11.827Z,82.44
2019-04-27T21:13:38.646Z,81.76
2019-04-27T21:16:06.125Z,82.37
2019-04-27T21:18:33.590Z,82.18
2019-04-27T21:21:01.381Z,82.66
2019-04-27T21:23:31.175Z,81.98
2019-04-27T21:25:57.094Z,81.82
2019-04-27T21:28:24.607Z,83.44
2019-04-27T21:30:52.102Z,82.70
2019-04-27T21:33:21.411Z,83.11
2019-04-27T21:35:48.284Z,83.83
2019-04-27T21:38:15.872Z,83.77
2019-04-27T21:40:43.407Z,82.98
2019-04-27T21:43:11.303Z,83.25
2019-04-27T21:45:38.520Z,82.40
2019-04-27T21:48:06.053Z,82.32
2019-04-27T21:50:33.490Z,82.05
2019-04-27T21:53:02.490Z,81.90
2019-04-27T21:55:30.923Z,81.89
2019-04-27T21:57:57.941Z,81.65
2019-04-27T22:00:43.160Z,80.85
2019-04-27T22:03:11.400Z,80.28
2019-04-27T22:05:38.355Z,80.27
2019-04-27T22:08:05.927Z,81.52
2019-04-27T22:10:33.802Z,80.75
2019-04-27T22:13:01.967Z,79.51
2019-04-27T22:15:29.261Z,80.44
2019-04-27T22:17:56.768Z,79.96
2019-04-27T22:20:24.323Z,79.58
2019-04-27T22:22:51.848Z,78.40
2019-04-27T22:25:19.337Z,78.50
2019-04-27T22:27:46.760Z,78.68
2019-04-27T22:30:14.293Z,79.24
2019-04-27T22:32:41.897Z,78.99
2019-04-27T22:35:09.407Z,79.29
2019-04-27T22:37:36.936Z,78.91
2019-04-27T22:40:21.471Z,78.69
2019-04-27T22:43:03.878Z,78.62
2019-04-27T22:45:31.366Z,78.76
2019-04-27T22:47:58.856Z,80.07
2019-04-27T22:50:26.375Z,77.72
2019-04-27T22:52:53.841Z,79.20
2019-04-27T22:55:22.017Z,79.21
2019-04-27T22:57:48.834Z,79.42
2019-04-27T23:00:31.293Z,78.18
2019-04-27T23:03:00.561Z,78.21
2019-04-27T23:05:26.298Z,78.62
2019-04-27T23:07:53.779Z,78.21
2019-04-27T23:10:22.313Z,78.78
2019-04-27T23:12:50.953Z,78.56
2019-04-27T23:15:17.464Z,79.39
2019-04-27T23:17:45.805Z,79.38
2019-04-27T23:20:13.198Z,78.94
2019-04-27T23:22:40.681Z,78.08
2019-04-27T23:25:08.183Z,79.09
2019-04-27T23:27:35.644Z,76.33
2019-04-27T23:30:03.062Z,78.16
2019-04-27T23:32:31.674Z,77.91
2019-04-27T23:34:58.605Z,78.05
2019-04-27T23:37:26.145Z,78.37
2019-04-27T23:39:53.635Z,76.85
2019-04-27T23:42:21.721Z,77.57
2019-04-27T23:44:48.592Z,78.81
2019-04-27T23:47:16.066Z,76.07
2019-04-27T23:49:43.635Z,76.37
2019-04-27T23:52:13.438Z,76.61
2019-04-27T23:54:42.767Z,76.80
2019-04-27T23:57:08.418Z,76.62
2019-04-27T23:59:35.952Z,76.67
